createdAt,value
2018-12-18T00:00:55.314Z,24.07
2018-12-18T00:03:25.232Z,24.17
2018-12-18T00:05:54.740Z,23.53
2018-12-18T00:08:24.204Z,24.67
2018-12-18T00:10:59.193Z,25.00
2018-12-18T00:13:28.758Z,24.00
2018-12-18T00:15:57.875Z,24.37
2018-12-18T00:18:27.218Z,24.37
2018-12-18T00:20:56.613Z,24.93
2018-12-18T00:23:26.082Z,25.03
2018-12-18T00:25:55.465Z,24.63
2018-12-18T00:28:25.456Z,25.23
2018-12-18T00:30:54.838Z,24.50
2018-12-18T00:33:24.221Z,25.83
2018-12-18T00:35:53.626Z,24.37
2018-12-18T00:38:23.043Z,24.20
2018-12-18T00:40:52.670Z,21.73
2018-12-18T00:43:22.114Z,23.13
2018-12-18T00:45:51.719Z,22.77
2018-12-18T00:48:21.167Z,21.03
2018-12-18T00:50:50.712Z,21.80
2018-12-18T00:53:20.391Z,22.10
2018-12-18T00:55:49.579Z,20.90
2018-12-18T00:58:19.022Z,21.77
2018-12-18T01:00:48.123Z,20.40
2018-12-18T01:03:17.417Z,20.43
2018-12-18T01:05:46.734Z,20.30
2018-12-18T01:08:16.347Z,19.70
2018-12-18T01:10:45.835Z,19.67
2018-12-18T01:13:15.530Z,18.67
2018-12-18T01:15:44.930Z,20.67
2018-12-18T01:18:14.204Z,20.17
2018-12-18T01:20:43.726Z,20.27
2018-12-18T01:23:13.448Z,20.27
2018-12-18T01:25:42.839Z,20.30
2018-12-18T01:28:12.376Z,21.70
2018-12-18T01:30:42.181Z,21.10
2018-12-18T01:33:11.695Z,21.30
2018-12-18T01:35:41.216Z,21.50
2018-12-18T01:38:10.674Z,22.70
2018-12-18T01:40:40.301Z,22.87
2018-12-18T01:43:09.799Z,18.90
2018-12-18T01:45:39.261Z,20.50
2018-12-18T01:48:08.825Z,20.67
2018-12-18T01:50:38.065Z,19.80
2018-12-18T01:53:07.585Z,20.63
2018-12-18T01:55:37.187Z,19.30
2018-12-18T01:58:06.759Z,18.40
2018-12-18T02:00:35.991Z,15.97
2018-12-18T02:03:05.499Z,17.70
2018-12-18T02:05:34.890Z,17.07
2018-12-18T02:08:04.709Z,16.23
2018-12-18T02:10:34.169Z,16.10
2018-12-18T02:13:03.665Z,15.13
2018-12-18T02:15:32.848Z,16.23
2018-12-18T02:18:02.398Z,15.37
2018-12-18T02:20:32.516Z,14.63
2018-12-18T02:23:02.059Z,14.13
2018-12-18T02:25:31.498Z,14.97
2018-12-18T02:28:00.837Z,12.93
2018-12-18T02:30:30.618Z,12.13
2018-12-18T02:33:00.381Z,13.03
2018-12-18T02:35:30.061Z,12.70
2018-12-18T02:37:59.398Z,12.63
2018-12-18T02:40:28.688Z,13.20
2018-12-18T02:42:58.046Z,12.67
2018-12-18T02:45:27.539Z,12.57
2018-12-18T02:47:56.969Z,12.80
2018-12-18T02:50:26.819Z,13.00
2018-12-18T02:52:56.311Z,12.03
2018-12-18T02:55:25.601Z,12.33
2018-12-18T02:57:55.173Z,12.57
2018-12-18T03:00:24.578Z,12.63
2018-12-18T03:02:53.919Z,13.27
2018-12-18T03:05:23.386Z,13.57
2018-12-18T03:07:52.789Z,12.20
2018-12-18T03:10:22.300Z,14.07
2018-12-18T03:12:51.745Z,14.67
2018-12-18T03:15:21.630Z,12.50
2018-12-18T03:17:51.122Z,12.33
2018-12-18T03:20:20.665Z,12.23
2018-12-18T03:22:50.012Z,11.53
2018-12-18T03:25:19.457Z,12.20
2018-12-18T03:27:48.888Z,12.47
2018-12-18T03:30:18.324Z,13.27
2018-12-18T03:32:51.359Z,13.17
2018-12-18T03:35:20.458Z,13.03
2018-12-18T03:37:49.680Z,11.70
2018-12-18T03:40:19.081Z,11.60
2018-12-18T03:42:48.759Z,13.07
2018-12-18T03:45:18.259Z,12.57
2018-12-18T03:47:47.621Z,13.37
2018-12-18T03:50:17.303Z,13.67
2018-12-18T03:52:46.521Z,14.00
2018-12-18T03:55:15.915Z,14.30
2018-12-18T03:57:45.106Z,13.07
2018-12-18T04:00:14.633Z,12.00
2018-12-18T04:02:44.140Z,13.13
2018-12-18T04:05:13.650Z,11.77
2018-12-18T04:07:42.923Z,12.60
2018-12-18T04:10:12.353Z,12.13
2018-12-18T04:12:41.964Z,12.40
2018-12-18T04:15:11.457Z,13.57
2018-12-18T04:17:40.725Z,13.33
2018-12-18T04:20:10.133Z,14.20
2018-12-18T04:22:39.724Z,13.70
2018-12-18T04:25:09.023Z,13.50
2018-12-18T04:27:39.102Z,13.93
2018-12-18T04:30:08.650Z,12.50
2018-12-18T04:32:37.883Z,11.87
2018-12-18T04:35:07.230Z,12.03
2018-12-18T04:37:36.554Z,12.07
2018-12-18T04:40:06.213Z,12.03
2018-12-18T04:42:35.380Z,11.17
2018-12-18T04:45:04.809Z,12.00
2018-12-18T04:47:34.611Z,12.10
2018-12-18T04:50:04.060Z,10.80
2018-12-18T04:52:33.773Z,10.90
2018-12-18T04:55:03.034Z,11.00
2018-12-18T04:57:32.514Z,12.70
2018-12-18T05:00:01.847Z,11.40
2018-12-18T05:02:31.395Z,10.40
2018-12-18T05:05:00.618Z,10.93
2018-12-18T05:07:30.234Z,8.80
2018-12-18T05:09:59.956Z,10.27
2018-12-18T05:12:29.471Z,9.27
2018-12-18T05:14:59.025Z,6.90
2018-12-18T05:17:28.496Z,9.23
2018-12-18T05:19:57.956Z,8.00
2018-12-18T05:22:27.749Z,7.40
2018-12-18T05:24:57.272Z,8.50
2018-12-18T05:27:26.836Z,8.30
2018-12-18T05:29:56.129Z,8.13
2018-12-18T05:32:25.792Z,8.93
2018-12-18T05:34:56.665Z,8.33
2018-12-18T05:37:24.634Z,7.70
2018-12-18T05:39:54.281Z,8.00
2018-12-18T05:42:23.811Z,8.10
2018-12-18T05:44:53.191Z,8.40
2018-12-18T05:47:22.704Z,8.97
2018-12-18T05:49:52.053Z,7.87
2018-12-18T05:52:21.531Z,8.10
2018-12-18T05:54:50.832Z,8.10
2018-12-18T05:57:20.212Z,9.73
2018-12-18T05:59:49.354Z,8.23
2018-12-18T06:02:18.409Z,8.03
2018-12-18T06:04:47.443Z,8.10
2018-12-18T06:07:16.578Z,8.50
2018-12-18T06:09:45.769Z,8.53
2018-12-18T06:12:15.073Z,8.03
2018-12-18T06:14:44.374Z,8.37
2018-12-18T06:17:13.639Z,8.30
2018-12-18T06:19:42.816Z,8.90
2018-12-18T06:22:12.116Z,8.70
2018-12-18T06:24:41.248Z,9.23
2018-12-18T06:27:10.452Z,10.80
2018-12-18T06:29:39.691Z,9.20
2018-12-18T06:32:08.767Z,7.80
2018-12-18T06:34:38.025Z,7.73
2018-12-18T06:37:07.367Z,7.90
2018-12-18T06:39:36.492Z,7.90
2018-12-18T06:42:05.872Z,7.20
2018-12-18T06:44:35.190Z,6.87
2018-12-18T06:47:04.438Z,5.93
2018-12-18T06:49:33.688Z,5.80
2018-12-18T06:52:02.820Z,6.07
2018-12-18T06:54:32.025Z,5.70
2018-12-18T06:57:01.190Z,6.27
2018-12-18T06:59:30.493Z,5.80
2018-12-18T07:01:59.827Z,5.33
2018-12-18T07:04:29.106Z,5.43
2018-12-18T07:06:58.204Z,5.70
2018-12-18T07:09:27.403Z,5.40
2018-12-18T07:11:56.498Z,4.77
2018-12-18T07:14:25.753Z,5.10
2018-12-18T07:16:55.048Z,5.27
2018-12-18T07:19:24.294Z,4.50
2018-12-18T07:21:53.558Z,4.30
2018-12-18T07:24:22.846Z,4.37
2018-12-18T07:26:52.217Z,3.97
2018-12-18T07:29:21.621Z,4.33
2018-12-18T07:31:50.877Z,4.67
2018-12-18T07:34:20.269Z,3.90
2018-12-18T07:36:49.443Z,4.20
2018-12-18T07:39:18.642Z,4.10
2018-12-18T07:41:47.830Z,3.67
2018-12-18T07:44:16.944Z,4.13
2018-12-18T07:46:46.181Z,4.27
2018-12-18T07:49:15.586Z,4.20
2018-12-18T07:51:44.929Z,4.57
2018-12-18T07:54:14.027Z,4.70
2018-12-18T07:56:43.132Z,4.57
2018-12-18T07:59:12.268Z,4.13
2018-12-18T08:01:41.494Z,4.50
2018-12-18T08:04:10.473Z,4.60
2018-12-18T08:06:39.457Z,4.60
2018-12-18T08:09:09.461Z,4.70
2018-12-18T08:11:38.690Z,4.80
2018-12-18T08:14:07.940Z,4.60
2018-12-18T08:16:37.351Z,5.33
2018-12-18T08:19:06.422Z,5.20
2018-12-18T08:21:35.510Z,5.13
2018-12-18T08:24:04.644Z,5.47
2018-12-18T08:26:34.027Z,6.17
2018-12-18T08:29:03.551Z,6.30
2018-12-18T08:31:32.766Z,6.13
2018-12-18T08:34:02.045Z,4.77
2018-12-18T08:36:31.170Z,5.93
2018-12-18T08:39:00.325Z,4.83
2018-12-18T08:41:29.283Z,5.07
2018-12-18T08:43:58.625Z,5.47
2018-12-18T08:46:27.969Z,5.53
2018-12-18T08:48:57.171Z,5.93
2018-12-18T08:51:26.480Z,6.40
2018-12-18T08:53:56.307Z,6.43
2018-12-18T08:56:25.749Z,6.77
2018-12-18T08:58:54.939Z,6.60
2018-12-18T09:01:23.954Z,6.63
2018-12-18T09:03:52.871Z,6.03
2018-12-18T09:06:21.867Z,6.63
2018-12-18T09:08:50.851Z,6.63
2018-12-18T09:11:19.802Z,6.60
2018-12-18T09:13:48.747Z,6.70
2018-12-18T09:16:22.817Z,6.83
2018-12-18T09:18:51.748Z,6.03
2018-12-18T09:21:20.742Z,7.53
2018-12-18T09:23:49.745Z,6.60
2018-12-18T09:26:18.673Z,6.53
2018-12-18T09:28:47.610Z,6.87
2018-12-18T09:31:16.596Z,6.87
2018-12-18T09:33:45.546Z,6.00
2018-12-18T09:36:14.482Z,6.73
2018-12-18T09:38:48.610Z,7.07
2018-12-18T09:41:22.464Z,7.57
2018-12-18T09:43:57.230Z,7.80
2018-12-18T09:46:26.174Z,8.00
2018-12-18T09:48:55.115Z,7.90
2018-12-18T09:51:24.109Z,7.30
2018-12-18T09:53:53.050Z,7.47
2018-12-18T09:56:21.979Z,7.47
2018-12-18T09:58:51.005Z,7.90
2018-12-18T10:01:20.016Z,8.03
2018-12-18T10:03:48.954Z,8.67
2018-12-18T10:06:18.304Z,8.63
2018-12-18T10:08:47.249Z,9.07
2018-12-18T10:11:16.244Z,8.40
2018-12-18T10:13:45.282Z,8.77
2018-12-18T10:16:14.242Z,8.33
2018-12-18T10:18:44.098Z,8.63
2018-12-18T10:21:13.160Z,8.60
2018-12-18T10:23:42.175Z,8.43
2018-12-18T10:26:11.125Z,9.20
2018-12-18T10:28:40.189Z,8.47
2018-12-18T10:31:09.180Z,8.10
2018-12-18T10:33:38.146Z,8.63
2018-12-18T10:36:07.198Z,9.13
2018-12-18T10:38:36.146Z,8.50
2018-12-18T10:41:05.150Z,8.77
2018-12-18T10:43:34.217Z,9.77
2018-12-18T10:46:03.231Z,9.17
2018-12-18T10:48:32.231Z,9.77
2018-12-18T10:51:01.260Z,9.63
2018-12-18T10:53:30.355Z,9.00
2018-12-18T10:55:59.311Z,9.57
2018-12-18T10:58:28.325Z,10.53
2018-12-18T11:01:02.369Z,10.50
2018-12-18T11:03:31.394Z,10.20
2018-12-18T11:06:00.375Z,10.63
2018-12-18T11:08:29.492Z,10.33
2018-12-18T11:10:58.613Z,11.07
2018-12-18T11:13:27.577Z,10.10
2018-12-18T11:15:56.522Z,10.37
2018-12-18T11:18:25.600Z,10.30
2018-12-18T11:20:54.539Z,9.93
2018-12-18T11:23:23.673Z,11.10
2018-12-18T11:25:52.680Z,10.90
2018-12-18T11:28:21.611Z,10.20
2018-12-18T11:30:50.557Z,10.47
2018-12-18T11:33:19.659Z,10.67
2018-12-18T11:35:48.664Z,10.70
2018-12-18T11:38:17.585Z,9.80
2018-12-18T11:40:46.990Z,9.97
2018-12-18T11:43:15.901Z,8.30
2018-12-18T11:45:44.837Z,8.13
2018-12-18T11:48:13.821Z,8.40
2018-12-18T11:50:42.786Z,8.73
2018-12-18T11:53:11.784Z,9.30
2018-12-18T11:55:40.775Z,8.27
2018-12-18T11:58:09.717Z,8.30
2018-12-18T12:00:38.740Z,8.30
2018-12-18T12:03:08.426Z,7.87
2018-12-18T12:05:38.154Z,9.03
2018-12-18T12:08:06.442Z,8.10
2018-12-18T12:10:35.685Z,8.77
2018-12-18T12:13:04.640Z,8.60
2018-12-18T12:15:33.619Z,16.83
2018-12-18T12:18:03.101Z,8.33
2018-12-18T12:20:32.065Z,8.80
2018-12-18T12:23:01.010Z,8.93
2018-12-18T12:25:30.019Z,9.60
2018-12-18T12:28:05.934Z,9.60
2018-12-18T12:30:35.662Z,9.13
2018-12-18T12:33:04.625Z,8.37
2018-12-18T12:35:33.650Z,9.03
2018-12-18T12:38:02.629Z,8.17
2018-12-18T12:40:31.618Z,8.00
2018-12-18T12:43:00.557Z,8.30
2018-12-18T12:45:29.602Z,8.30
2018-12-18T12:48:00.420Z,8.97
2018-12-18T12:50:29.428Z,8.53
2018-12-18T12:52:58.737Z,8.37
2018-12-18T12:55:27.713Z,8.33
2018-12-18T12:57:56.646Z,8.17
2018-12-18T13:00:25.649Z,8.00
2018-12-18T13:02:54.604Z,8.23
2018-12-18T13:05:23.520Z,8.50
2018-12-18T13:07:52.506Z,8.00
2018-12-18T13:10:21.461Z,8.37
2018-12-18T13:12:50.416Z,7.47
2018-12-18T13:15:19.669Z,7.43
2018-12-18T13:17:48.605Z,7.73
2018-12-18T13:20:17.654Z,7.00
2018-12-18T13:22:47.121Z,8.03
2018-12-18T13:25:16.042Z,8.27
2018-12-18T13:27:44.981Z,8.90
2018-12-18T13:30:13.998Z,7.40
2018-12-18T13:32:42.964Z,7.10
2018-12-18T13:35:11.950Z,7.70
2018-12-18T13:37:40.952Z,7.53
2018-12-18T13:40:09.941Z,7.07
2018-12-18T13:42:38.918Z,7.47
2018-12-18T13:45:07.955Z,7.73
2018-12-18T13:47:36.908Z,6.83
2018-12-18T13:50:06.016Z,7.23
2018-12-18T13:52:35.010Z,7.47
2018-12-18T13:55:03.957Z,7.00
2018-12-18T13:57:32.989Z,7.03
2018-12-18T14:00:02.031Z,6.83
2018-12-18T14:02:30.997Z,7.60
2018-12-18T14:04:59.972Z,8.23
2018-12-18T14:07:29.234Z,8.97
2018-12-18T14:09:58.395Z,7.80
2018-12-18T14:12:27.377Z,7.87
2018-12-18T14:14:56.356Z,6.33
2018-12-18T14:17:25.295Z,6.47
2018-12-18T14:19:54.396Z,7.83
2018-12-18T14:22:23.393Z,7.30
2018-12-18T14:24:52.424Z,6.30
2018-12-18T14:27:21.394Z,6.30
2018-12-18T14:29:50.393Z,6.47
2018-12-18T14:32:19.519Z,7.17
2018-12-18T14:34:48.675Z,6.10
2018-12-18T14:37:17.758Z,6.03
2018-12-18T14:39:46.787Z,6.17
2018-12-18T14:42:15.851Z,5.93
2018-12-18T14:44:44.991Z,7.70
2018-12-18T14:47:14.121Z,5.90
2018-12-18T14:49:43.188Z,7.20
2018-12-18T14:52:12.217Z,6.97
2018-12-18T14:54:41.388Z,7.13
2018-12-18T14:57:10.386Z,7.77
2018-12-18T14:59:39.537Z,7.70
2018-12-18T15:02:08.611Z,7.03
2018-12-18T15:04:37.681Z,7.17
2018-12-18T15:07:06.769Z,7.93
2018-12-18T15:09:35.799Z,7.80
2018-12-18T15:12:04.977Z,7.07
2018-12-18T15:14:33.978Z,7.03
2018-12-18T15:17:03.063Z,7.27
2018-12-18T15:19:32.143Z,6.97
2018-12-18T15:22:01.139Z,8.17
2018-12-18T15:24:30.148Z,7.30
2018-12-18T15:26:59.221Z,7.80
2018-12-18T15:29:28.247Z,7.93
2018-12-18T15:31:57.294Z,6.60
2018-12-18T15:34:26.371Z,6.90
2018-12-18T15:36:55.384Z,7.00
2018-12-18T15:39:24.422Z,7.13
2018-12-18T15:41:53.738Z,6.53
2018-12-18T15:44:22.775Z,6.90
2018-12-18T15:46:51.780Z,7.07
2018-12-18T15:49:20.867Z,6.87
2018-12-18T15:51:49.898Z,6.80
2018-12-18T15:54:18.961Z,6.83
2018-12-18T15:56:48.059Z,7.10
2018-12-18T15:59:18.824Z,6.97
2018-12-18T16:01:47.926Z,6.80
2018-12-18T16:04:18.599Z,7.40
2018-12-18T16:06:47.628Z,7.37
2018-12-18T16:09:16.638Z,7.30
2018-12-18T16:11:45.703Z,7.53
2018-12-18T16:14:14.727Z,7.57
2018-12-18T16:16:43.771Z,8.07
2018-12-18T16:19:12.914Z,7.20
2018-12-18T16:21:42.052Z,7.03
2018-12-18T16:24:11.074Z,7.43
2018-12-18T16:26:40.069Z,7.30
2018-12-18T16:29:09.046Z,7.83
2018-12-18T16:31:38.016Z,7.93
2018-12-18T16:34:07.020Z,8.13
2018-12-18T16:36:35.946Z,5.57
2018-12-18T16:39:06.848Z,7.33
2018-12-18T16:41:35.852Z,6.73
2018-12-18T16:44:04.830Z,6.87
2018-12-18T16:46:33.807Z,8.00
2018-12-18T16:49:03.205Z,8.30
2018-12-18T16:51:32.172Z,7.60
2018-12-18T16:54:01.137Z,8.03
2018-12-18T16:56:30.245Z,7.63
2018-12-18T16:58:59.230Z,7.93
2018-12-18T17:01:28.189Z,8.43
2018-12-18T17:03:57.501Z,8.33
2018-12-18T17:06:26.484Z,8.17
2018-12-18T17:08:55.970Z,7.63
2018-12-18T17:11:24.981Z,7.80
2018-12-18T17:13:53.948Z,8.03
2018-12-18T17:16:22.880Z,8.07
2018-12-18T17:18:51.881Z,8.17
2018-12-18T17:21:20.853Z,8.23
2018-12-18T17:23:49.837Z,8.20
2018-12-18T17:26:18.858Z,9.07
2018-12-18T17:28:47.773Z,8.80
2018-12-18T17:31:16.742Z,8.97
2018-12-18T17:33:46.179Z,9.97
2018-12-18T17:36:15.198Z,9.60
2018-12-18T17:38:44.164Z,9.43
2018-12-18T17:41:13.226Z,9.77
2018-12-18T17:46:10.546Z,9.20
2018-12-18T17:48:39.567Z,10.00
2018-12-18T17:51:08.531Z,9.73
2018-12-18T17:53:37.474Z,9.03
2018-12-18T17:56:06.510Z,9.53
2018-12-18T17:58:35.477Z,9.50
2018-12-18T18:01:04.455Z,9.83
2018-12-18T18:03:33.457Z,10.03
2018-12-18T18:06:02.489Z,10.20
2018-12-18T18:08:31.449Z,9.47
2018-12-18T18:11:00.845Z,11.50
2018-12-18T18:13:29.804Z,10.73
2018-12-18T18:15:58.795Z,9.80
2018-12-18T18:18:27.846Z,10.03
2018-12-18T18:20:56.820Z,9.83
2018-12-18T18:23:25.736Z,9.83
2018-12-18T18:25:55.091Z,9.70
2018-12-18T18:28:24.089Z,10.17
2018-12-18T18:30:53.098Z,10.10
2018-12-18T18:33:22.106Z,10.43
2018-12-18T18:35:51.058Z,9.53
2018-12-18T18:38:20.561Z,9.93
2018-12-18T18:40:49.591Z,10.87
2018-12-18T18:43:18.550Z,11.40
2018-12-18T18:45:47.614Z,11.60
2018-12-18T18:48:16.728Z,11.40
2018-12-18T18:50:45.712Z,11.07
2018-12-18T18:53:14.724Z,11.67
2018-12-18T18:55:43.778Z,12.03
2018-12-18T18:58:12.744Z,12.97
2018-12-18T19:00:42.495Z,12.37
2018-12-18T19:03:11.515Z,13.37
2018-12-18T19:05:40.528Z,16.80
2018-12-18T19:08:09.534Z,14.27
2018-12-18T19:10:38.562Z,13.37
2018-12-18T19:13:07.519Z,13.00
2018-12-18T19:15:36.612Z,13.07
2018-12-18T19:18:05.625Z,11.47
2018-12-18T19:20:34.627Z,11.87
2018-12-18T19:23:03.626Z,12.87
2018-12-18T19:25:32.681Z,13.53
2018-12-18T19:28:01.669Z,11.93
2018-12-18T19:30:30.666Z,12.63
2018-12-18T19:32:59.713Z,12.07
2018-12-18T19:35:28.695Z,12.20
2018-12-18T19:38:03.160Z,12.93
2018-12-18T19:40:27.103Z,12.20
2018-12-18T19:42:56.123Z,12.17
2018-12-18T19:45:25.778Z,12.50
2018-12-18T19:47:54.864Z,12.80
2018-12-18T19:50:23.875Z,13.40
2018-12-18T19:52:53.750Z,13.57
2018-12-18T19:55:22.999Z,12.37
2018-12-18T19:57:51.975Z,12.23
2018-12-18T20:00:22.397Z,12.10
2018-12-18T20:02:51.401Z,12.07
2018-12-18T20:05:20.435Z,11.33
2018-12-18T20:07:49.441Z,11.87
2018-12-18T20:10:18.498Z,11.80
2018-12-18T20:12:47.480Z,11.80
2018-12-18T20:15:16.438Z,11.63
2018-12-18T20:17:45.502Z,11.20
2018-12-18T20:20:14.520Z,10.93
2018-12-18T20:22:43.493Z,11.47
2018-12-18T20:25:12.542Z,11.57
2018-12-18T20:27:41.514Z,11.87
2018-12-18T20:30:11.967Z,12.13
2018-12-18T20:32:39.589Z,11.77
2018-12-18T20:35:08.574Z,12.30
2018-12-18T20:37:37.592Z,12.10
2018-12-18T20:40:08.732Z,11.60
2018-12-18T20:42:40.590Z,11.23
2018-12-18T20:45:09.770Z,12.43
2018-12-18T20:47:38.761Z,12.70
2018-12-18T20:50:08.040Z,12.77
2018-12-18T20:52:37.453Z,12.43
2018-12-18T20:55:06.737Z,13.07
2018-12-18T20:57:35.673Z,12.37
2018-12-18T21:00:05.457Z,13.00
2018-12-18T21:02:34.529Z,12.67
2018-12-18T21:05:03.525Z,12.33
2018-12-18T21:07:32.594Z,11.73
2018-12-18T21:10:01.563Z,12.07
2018-12-18T21:12:30.633Z,12.20
2018-12-18T21:15:00.828Z,12.37
2018-12-18T21:17:28.643Z,12.53
2018-12-18T21:19:57.717Z,12.10
2018-12-18T21:22:26.730Z,11.00
2018-12-18T21:24:55.687Z,11.53
2018-12-18T21:27:24.613Z,11.60
2018-12-18T21:29:53.639Z,11.43
2018-12-18T21:32:22.590Z,11.20
2018-12-18T21:34:51.541Z,11.70
2018-12-18T21:37:21.018Z,11.67
2018-12-18T21:39:49.964Z,12.47
2018-12-18T21:42:19.124Z,12.57
2018-12-18T21:44:48.398Z,13.50
2018-12-18T21:47:17.517Z,12.77
2018-12-18T21:49:46.570Z,13.70
2018-12-18T21:52:16.164Z,13.87
2018-12-18T21:54:45.211Z,13.47
2018-12-18T21:57:14.150Z,13.00
2018-12-18T21:59:43.192Z,12.13
2018-12-18T22:02:12.191Z,12.70
2018-12-18T22:04:41.158Z,13.13
2018-12-18T22:07:10.127Z,12.70
2018-12-18T22:09:39.091Z,13.37
2018-12-18T22:12:08.037Z,12.87
2018-12-18T22:14:37.012Z,13.17
2018-12-18T22:17:05.997Z,13.40
2018-12-18T22:19:34.896Z,13.97
2018-12-18T22:22:03.911Z,13.20
2018-12-18T22:24:33.364Z,12.63
2018-12-18T22:27:02.333Z,12.20
2018-12-18T22:29:31.324Z,11.97
2018-12-18T22:32:00.410Z,11.93
2018-12-18T22:34:29.385Z,11.60
2018-12-18T22:36:58.452Z,10.50
2018-12-18T22:39:27.442Z,11.13
2018-12-18T22:41:56.427Z,12.43
2018-12-18T22:44:25.500Z,11.87
2018-12-18T22:46:54.486Z,11.53
2018-12-18T22:49:23.497Z,12.07
2018-12-18T22:51:53.606Z,11.73
2018-12-18T22:54:22.559Z,11.97
2018-12-18T22:56:51.578Z,11.53
2018-12-18T22:59:20.878Z,11.23
2018-12-18T23:01:50.615Z,11.07
2018-12-18T23:04:19.542Z,10.97
2018-12-18T23:06:48.939Z,11.10
2018-12-18T23:09:17.949Z,10.83
2018-12-18T23:11:47.044Z,12.03
2018-12-18T23:14:16.092Z,10.90
2018-12-18T23:16:45.220Z,11.83
2018-12-18T23:19:14.243Z,12.13
2018-12-18T23:21:43.534Z,10.90
2018-12-18T23:24:12.593Z,12.00
2018-12-18T23:26:42.091Z,11.17
2018-12-18T23:29:11.097Z,10.80
2018-12-18T23:31:40.086Z,10.23
2018-12-18T23:34:09.117Z,10.13
2018-12-18T23:36:38.350Z,10.83
2018-12-18T23:39:08.807Z,10.50
2018-12-18T23:41:37.952Z,10.80
2018-12-18T23:44:07.058Z,10.47
2018-12-18T23:46:36.054Z,10.40
2018-12-18T23:49:06.197Z,9.70
2018-12-18T23:51:35.327Z,10.20
2018-12-18T23:54:04.511Z,10.20
2018-12-18T23:56:33.702Z,10.00
2018-12-18T23:59:03.072Z,9.73
